createdAt,value
2019-03-15T00:00:28.691Z,24.63
2019-03-15T00:02:58.463Z,29.98
2019-03-15T00:05:28.271Z,29.15
2019-03-15T00:07:58.059Z,30.02
2019-03-15T00:10:27.846Z,27.25
2019-03-15T00:12:57.724Z,26.50
2019-03-15T00:15:27.575Z,25.15
2019-03-15T00:17:59.448Z,25.75
2019-03-15T00:20:29.323Z,22.00
2019-03-15T00:22:59.406Z,23.35
2019-03-15T00:25:29.475Z,22.15
2019-03-15T00:27:59.349Z,18.12
2019-03-15T00:30:29.631Z,26.65
2019-03-15T00:32:59.411Z,23.62
2019-03-15T00:35:29.215Z,22.00
2019-03-15T00:38:00.602Z,23.42
2019-03-15T00:40:30.955Z,27.07
2019-03-15T00:43:00.968Z,20.75
2019-03-15T00:45:30.831Z,26.02
2019-03-15T00:48:00.796Z,26.42
2019-03-15T00:50:30.598Z,24.35
2019-03-15T00:53:00.642Z,21.23
2019-03-15T00:55:30.863Z,21.45
2019-03-15T00:58:01.709Z,22.58
2019-03-15T01:00:31.691Z,23.07
2019-03-15T01:03:02.549Z,24.52
2019-03-15T01:05:32.395Z,22.85
2019-03-15T01:08:02.615Z,29.23
2019-03-15T01:10:32.391Z,22.90
2019-03-15T01:13:02.206Z,19.67
2019-03-15T01:15:32.504Z,20.08
2019-03-15T01:18:02.307Z,21.93
2019-03-15T01:20:32.117Z,20.45
2019-03-15T01:23:02.371Z,22.27
2019-03-15T01:25:32.140Z,15.72
2019-03-15T01:28:02.892Z,26.97
2019-03-15T01:30:32.674Z,16.12
2019-03-15T01:33:02.451Z,25.70
2019-03-15T01:35:34.009Z,29.70
2019-03-15T01:38:03.776Z,18.98
2019-03-15T01:40:33.551Z,16.48
2019-03-15T01:43:03.463Z,25.12
2019-03-15T01:45:33.245Z,21.80
2019-03-15T01:48:03.152Z,24.52
2019-03-15T01:50:33.574Z,21.90
2019-03-15T01:53:03.350Z,22.07
2019-03-15T01:55:33.129Z,18.15
2019-03-15T01:58:03.635Z,19.32
2019-03-15T02:00:33.815Z,21.15
2019-03-15T02:03:03.807Z,14.70
2019-03-15T02:05:33.974Z,20.35
2019-03-15T02:08:07.035Z,14.60
2019-03-15T02:10:37.502Z,17.80
2019-03-15T02:13:09.247Z,12.10
2019-03-15T02:15:39.020Z,16.93
2019-03-15T02:18:08.809Z,14.70
2019-03-15T02:20:39.306Z,14.55
2019-03-15T02:23:09.087Z,16.67
2019-03-15T02:25:38.863Z,11.68
2019-03-15T02:28:09.048Z,12.85
2019-03-15T02:30:38.826Z,10.35
2019-03-15T02:33:08.594Z,5.90
2019-03-15T02:35:39.100Z,8.35
2019-03-15T02:38:08.872Z,3.95
2019-03-15T02:40:38.927Z,3.95
2019-03-15T02:43:09.160Z,2.20
2019-03-15T02:45:38.933Z,1.82
2019-03-15T02:48:08.703Z,1.82
2019-03-15T02:50:39.208Z,1.67
2019-03-15T02:53:09.121Z,2.33
2019-03-15T02:55:39.901Z,1.12
2019-03-15T02:58:09.703Z,2.95
2019-03-15T03:00:41.009Z,4.20
2019-03-15T03:03:10.876Z,3.40
2019-03-15T03:05:40.680Z,4.75
2019-03-15T03:08:10.457Z,3.50
2019-03-15T03:10:43.205Z,4.17
2019-03-15T03:13:13.080Z,4.70
2019-03-15T03:15:42.854Z,4.20
2019-03-15T03:18:12.645Z,6.67
2019-03-15T03:20:42.586Z,5.15
2019-03-15T03:23:12.363Z,3.30
2019-03-15T03:25:42.322Z,2.62
2019-03-15T03:28:12.527Z,2.60
2019-03-15T03:30:42.646Z,3.62
2019-03-15T03:33:14.073Z,3.77
2019-03-15T03:35:44.367Z,4.95
2019-03-15T03:38:14.330Z,5.50
2019-03-15T03:40:44.221Z,4.45
2019-03-15T03:43:14.383Z,3.40
2019-03-15T03:45:44.159Z,2.85
2019-03-15T03:48:15.815Z,2.75
2019-03-15T03:50:45.375Z,3.40
2019-03-15T03:53:15.353Z,2.02
2019-03-15T03:55:45.340Z,1.67
2019-03-15T03:58:15.152Z,0.80
2019-03-15T04:00:44.927Z,2.27
2019-03-15T04:03:15.483Z,1.25
2019-03-15T04:05:45.326Z,2.67
2019-03-15T04:08:15.120Z,1.82
2019-03-15T04:10:45.280Z,2.42
2019-03-15T04:13:15.103Z,1.67
2019-03-15T04:15:44.947Z,2.10
2019-03-15T04:18:15.283Z,3.67
2019-03-15T04:20:45.087Z,1.12
2019-03-15T04:23:14.867Z,1.95
2019-03-15T04:25:44.643Z,1.67
2019-03-15T04:28:14.630Z,1.37
2019-03-15T04:30:44.403Z,2.02
2019-03-15T04:33:14.391Z,4.75
2019-03-15T04:35:44.663Z,4.37
2019-03-15T04:38:14.437Z,2.30
2019-03-15T04:40:44.456Z,2.17
2019-03-15T04:43:14.768Z,2.65
2019-03-15T04:45:44.542Z,3.25
2019-03-15T04:48:14.507Z,1.75
2019-03-15T04:50:44.800Z,3.12
2019-03-15T04:53:14.576Z,3.55
2019-03-15T04:55:44.350Z,2.05
2019-03-15T04:58:14.815Z,5.90
2019-03-15T05:00:44.591Z,3.05
2019-03-15T05:03:14.367Z,4.42
2019-03-15T05:05:44.782Z,3.98
2019-03-15T05:08:14.752Z,0.82
2019-03-15T05:10:44.670Z,2.00
2019-03-15T05:13:14.832Z,1.57
2019-03-15T05:15:44.607Z,0.95
2019-03-15T05:18:14.383Z,1.12
2019-03-15T05:20:44.720Z,2.35
2019-03-15T05:23:14.498Z,1.77
2019-03-15T05:25:44.287Z,2.42
2019-03-15T05:28:14.751Z,2.87
2019-03-15T05:30:44.529Z,2.05
2019-03-15T05:33:14.295Z,2.25
2019-03-15T05:35:44.125Z,0.82
2019-03-15T05:38:13.886Z,1.72
2019-03-15T05:40:43.972Z,1.77
2019-03-15T05:43:13.787Z,2.45
2019-03-15T05:45:43.570Z,2.52
2019-03-15T05:48:13.349Z,3.20
2019-03-15T05:50:43.171Z,1.57
2019-03-15T05:53:13.232Z,5.65
2019-03-15T05:55:43.230Z,2.65
2019-03-15T05:58:13.411Z,4.62
2019-03-15T06:00:43.247Z,2.20
2019-03-15T06:03:13.828Z,1.92
2019-03-15T06:05:43.632Z,4.78
2019-03-15T06:08:13.411Z,1.40
2019-03-15T06:10:43.526Z,4.72
2019-03-15T06:13:13.331Z,0.85
2019-03-15T06:15:43.106Z,2.30
2019-03-15T06:18:12.882Z,2.22
2019-03-15T06:20:42.689Z,0.95
2019-03-15T06:23:12.466Z,1.82
2019-03-15T06:25:42.354Z,4.65
2019-03-15T06:28:12.175Z,2.70
2019-03-15T06:30:42.275Z,3.40
2019-03-15T06:33:12.078Z,7.08
2019-03-15T06:35:41.892Z,2.45
2019-03-15T06:38:11.671Z,4.17
2019-03-15T06:40:41.467Z,8.43
2019-03-15T06:43:13.175Z,4.60
2019-03-15T06:45:43.093Z,7.95
2019-03-15T06:48:12.874Z,7.65
2019-03-15T06:50:42.682Z,5.30
2019-03-15T06:53:12.539Z,9.70
2019-03-15T06:55:42.372Z,4.40
2019-03-15T06:58:12.189Z,7.00
2019-03-15T07:00:41.959Z,6.58
2019-03-15T07:03:12.591Z,7.95
2019-03-15T07:05:42.743Z,7.55
2019-03-15T07:08:12.914Z,9.13
2019-03-15T07:10:44.274Z,9.80
2019-03-15T07:13:14.362Z,8.35
2019-03-15T07:15:44.649Z,11.30
2019-03-15T07:18:14.560Z,9.93
2019-03-15T07:20:44.368Z,7.00
2019-03-15T07:23:14.500Z,8.83
2019-03-15T07:25:44.283Z,8.90
2019-03-15T07:28:14.086Z,7.37
2019-03-15T07:30:44.498Z,10.38
2019-03-15T07:33:14.290Z,8.25
2019-03-15T07:35:44.086Z,6.70
2019-03-15T07:38:14.402Z,8.35
2019-03-15T07:40:44.187Z,5.85
2019-03-15T07:43:13.996Z,12.60
2019-03-15T07:45:43.783Z,9.63
2019-03-15T07:48:22.265Z,7.03
2019-03-15T07:50:45.550Z,11.22
2019-03-15T07:53:15.443Z,8.40
2019-03-15T07:55:45.490Z,11.38
2019-03-15T07:58:15.386Z,8.53
2019-03-15T08:00:45.426Z,7.12
2019-03-15T08:03:15.598Z,11.48
2019-03-15T08:05:45.584Z,11.20
2019-03-15T08:08:15.663Z,7.90
2019-03-15T08:10:45.666Z,11.93
2019-03-15T08:13:15.604Z,16.57
2019-03-15T08:15:45.786Z,6.53
2019-03-15T08:18:15.640Z,12.85
2019-03-15T08:20:45.654Z,13.22
2019-03-15T08:23:15.588Z,13.48
2019-03-15T08:25:50.140Z,14.43
2019-03-15T08:28:18.225Z,15.65
2019-03-15T08:30:48.020Z,9.25
2019-03-15T08:33:18.443Z,8.53
2019-03-15T08:35:48.255Z,12.85
2019-03-15T08:38:18.035Z,11.10
2019-03-15T08:40:47.815Z,9.75
2019-03-15T08:43:18.080Z,8.20
2019-03-15T08:45:47.856Z,12.40
2019-03-15T08:48:17.635Z,11.33
2019-03-15T08:50:47.826Z,15.45
2019-03-15T08:53:17.603Z,12.30
2019-03-15T08:55:47.582Z,13.13
2019-03-15T08:58:21.870Z,12.63
2019-03-15T09:00:49.487Z,10.65
2019-03-15T09:03:27.873Z,7.08
2019-03-15T09:05:51.303Z,12.35
2019-03-15T09:08:21.123Z,12.30
2019-03-15T09:10:51.110Z,10.25
2019-03-15T09:13:21.171Z,11.73
2019-03-15T09:15:51.332Z,11.35
2019-03-15T09:18:21.497Z,8.08
2019-03-15T09:20:51.305Z,13.85
2019-03-15T09:23:21.095Z,9.83
2019-03-15T09:25:51.139Z,9.20
2019-03-15T09:28:21.117Z,11.53
2019-03-15T09:30:51.056Z,8.50
2019-03-15T09:33:21.265Z,10.98
2019-03-15T09:35:51.304Z,6.67
2019-03-15T09:38:21.117Z,8.28
2019-03-15T09:40:51.250Z,10.30
2019-03-15T09:43:21.378Z,12.85
2019-03-15T09:45:51.150Z,9.98
2019-03-15T09:48:20.927Z,11.18
2019-03-15T09:50:51.812Z,8.63
2019-03-15T09:53:21.911Z,10.63
2019-03-15T09:55:51.877Z,9.18
2019-03-15T09:58:21.859Z,11.48
2019-03-15T10:00:51.871Z,9.15
2019-03-15T10:03:22.701Z,7.92
2019-03-15T10:05:52.576Z,9.55
2019-03-15T10:08:23.752Z,10.63
2019-03-15T10:10:53.755Z,9.10
2019-03-15T10:13:23.886Z,10.75
2019-03-15T10:15:55.683Z,12.18
2019-03-15T10:18:25.255Z,16.30
2019-03-15T10:20:55.083Z,13.83
2019-03-15T10:23:24.856Z,13.80
2019-03-15T10:25:55.436Z,15.78
2019-03-15T10:28:25.287Z,10.32
2019-03-15T10:30:55.089Z,12.13
2019-03-15T10:33:24.846Z,11.43
2019-03-15T10:35:55.107Z,10.53
2019-03-15T10:38:24.998Z,8.55
2019-03-15T10:40:54.818Z,11.95
2019-03-15T10:43:25.331Z,7.85
2019-03-15T10:45:55.130Z,10.65
2019-03-15T10:48:25.803Z,6.92
2019-03-15T10:50:55.727Z,6.47
2019-03-15T10:53:25.569Z,8.43
2019-03-15T10:56:00.509Z,10.63
2019-03-15T10:58:27.387Z,10.82
2019-03-15T11:00:57.338Z,11.40
2019-03-15T11:03:27.118Z,14.15
2019-03-15T11:05:57.214Z,11.10
2019-03-15T11:08:27.522Z,12.18
2019-03-15T11:10:57.305Z,11.08
2019-03-15T11:13:27.123Z,10.32
2019-03-15T11:15:57.406Z,16.62
2019-03-15T11:18:27.193Z,11.95
2019-03-15T11:20:56.999Z,9.95
2019-03-15T11:23:26.777Z,12.33
2019-03-15T11:25:56.554Z,9.58
2019-03-15T11:28:26.370Z,10.25
2019-03-15T11:30:56.143Z,16.45
2019-03-15T11:33:25.926Z,22.40
2019-03-15T11:35:55.890Z,14.40
2019-03-15T11:38:25.738Z,10.48
2019-03-15T11:40:56.066Z,10.48
2019-03-15T11:43:25.878Z,9.58
2019-03-15T11:45:55.722Z,12.37
2019-03-15T11:48:25.975Z,6.55
2019-03-15T11:50:55.855Z,7.28
2019-03-15T11:53:25.699Z,8.33
2019-03-15T11:55:56.082Z,13.40
2019-03-15T11:58:25.982Z,10.05
2019-03-15T12:00:55.755Z,13.90
2019-03-15T12:03:26.128Z,13.68
2019-03-15T12:05:56.006Z,10.80
2019-03-15T12:08:25.860Z,9.28
2019-03-15T12:10:56.080Z,9.25
2019-03-15T12:13:25.962Z,7.40
2019-03-15T12:15:55.811Z,10.88
2019-03-15T12:18:26.196Z,8.23
2019-03-15T12:20:56.090Z,10.03
2019-03-15T12:23:25.869Z,9.68
2019-03-15T12:25:56.179Z,12.47
2019-03-15T12:28:26.064Z,15.60
2019-03-15T12:30:55.910Z,5.55
2019-03-15T12:33:25.702Z,10.68
2019-03-15T12:35:55.658Z,7.50
2019-03-15T12:38:25.508Z,10.35
2019-03-15T12:40:55.287Z,9.25
2019-03-15T12:43:25.690Z,9.80
2019-03-15T12:45:55.642Z,7.40
2019-03-15T12:48:25.483Z,9.88
2019-03-15T12:50:55.728Z,11.12
2019-03-15T12:53:25.549Z,11.10
2019-03-15T12:55:55.359Z,11.75
2019-03-15T12:58:25.535Z,10.23
2019-03-15T13:00:55.323Z,10.63
2019-03-15T13:03:25.108Z,12.75
2019-03-15T13:05:54.923Z,9.68
2019-03-15T13:08:24.711Z,6.97
2019-03-15T13:10:54.488Z,10.40
2019-03-15T13:13:24.303Z,14.87
2019-03-15T13:15:54.105Z,10.25
2019-03-15T13:18:23.858Z,7.80
2019-03-15T13:20:53.743Z,8.40
2019-03-15T13:23:23.890Z,11.55
2019-03-15T13:25:54.561Z,8.95
2019-03-15T13:28:24.619Z,7.45
2019-03-15T13:30:54.397Z,7.83
2019-03-15T13:33:24.185Z,10.32
2019-03-15T13:35:53.984Z,11.00
2019-03-15T13:38:23.854Z,12.30
2019-03-15T13:40:54.006Z,12.35
2019-03-15T13:43:23.883Z,7.53
2019-03-15T13:45:53.967Z,10.25
2019-03-15T13:48:23.959Z,8.35
2019-03-15T13:50:54.002Z,7.55
2019-03-15T13:53:24.255Z,9.83
2019-03-15T13:55:54.039Z,14.35
2019-03-15T13:58:24.007Z,5.33
2019-03-15T14:00:54.017Z,11.57
2019-03-15T14:03:24.119Z,10.23
2019-03-15T14:05:53.938Z,10.65
2019-03-15T14:08:23.722Z,19.52
2019-03-15T14:10:53.498Z,10.53
2019-03-15T14:13:23.335Z,9.73
2019-03-15T14:15:53.115Z,13.15
2019-03-15T14:18:22.968Z,10.18
2019-03-15T14:20:53.083Z,18.37
2019-03-15T14:23:22.867Z,14.13
2019-03-15T14:25:52.653Z,10.05
2019-03-15T14:28:22.603Z,10.38
2019-03-15T14:30:52.383Z,11.97
2019-03-15T14:33:22.331Z,13.28
2019-03-15T14:35:52.143Z,11.15
2019-03-15T14:38:22.538Z,15.80
2019-03-15T14:40:52.687Z,11.73
2019-03-15T14:43:22.679Z,10.88
2019-03-15T14:45:52.594Z,11.73
2019-03-15T14:48:22.364Z,13.88
2019-03-15T14:50:52.768Z,12.07
2019-03-15T14:53:41.943Z,12.03
2019-03-15T14:56:11.815Z,12.95
2019-03-15T14:58:41.603Z,11.63
2019-03-15T15:01:11.638Z,13.40
2019-03-15T15:03:41.711Z,8.73
2019-03-15T15:06:11.491Z,12.13
2019-03-15T15:08:41.275Z,14.93
2019-03-15T15:11:11.089Z,16.05
2019-03-15T15:13:40.952Z,14.33
2019-03-15T15:16:10.731Z,18.35
2019-03-15T15:18:40.905Z,16.57
2019-03-15T15:21:11.122Z,14.68
2019-03-15T15:23:40.900Z,9.03
2019-03-15T15:26:10.719Z,12.18
2019-03-15T15:28:40.498Z,12.35
2019-03-15T15:31:10.274Z,11.63
2019-03-15T15:33:40.384Z,13.88
2019-03-15T15:36:10.594Z,9.70
2019-03-15T15:38:40.692Z,10.93
2019-03-15T15:41:11.427Z,12.37
2019-03-15T15:43:41.211Z,11.83
2019-03-15T15:46:11.150Z,10.82
2019-03-15T15:48:41.737Z,15.53
2019-03-15T15:51:11.508Z,19.15
2019-03-15T15:53:41.427Z,73.25
2019-03-15T15:56:11.409Z,12.70
2019-03-15T15:58:41.796Z,30.40
2019-03-15T16:01:11.750Z,10.82
2019-03-15T16:03:41.557Z,7.87
2019-03-15T16:06:11.348Z,21.82
2019-03-15T16:08:41.908Z,9.13
2019-03-15T16:11:11.723Z,15.20
2019-03-15T16:13:41.615Z,10.23
2019-03-15T16:16:11.460Z,16.87
2019-03-15T16:18:41.965Z,13.38
2019-03-15T16:21:12.320Z,18.48
2019-03-15T16:23:42.360Z,17.77
2019-03-15T16:26:12.175Z,13.03
2019-03-15T16:28:41.950Z,14.30
2019-03-15T16:31:11.731Z,15.38
2019-03-15T16:33:41.739Z,21.40
2019-03-15T16:36:11.493Z,14.33
2019-03-15T16:38:41.523Z,14.10
2019-03-15T16:41:11.636Z,26.70
2019-03-15T16:43:41.593Z,15.08
2019-03-15T16:46:11.842Z,15.50
2019-03-15T16:48:41.931Z,17.73
2019-03-15T16:51:19.467Z,15.23
2019-03-15T16:53:43.173Z,13.60
2019-03-15T16:56:12.972Z,15.45
2019-03-15T16:58:45.656Z,8.95
2019-03-15T17:01:14.706Z,14.43
2019-03-15T17:03:44.518Z,14.70
2019-03-15T17:06:14.387Z,14.00
2019-03-15T17:08:44.422Z,15.85
2019-03-15T17:11:14.761Z,15.40
2019-03-15T17:13:44.679Z,13.38
2019-03-15T17:16:15.139Z,12.95
2019-03-15T17:18:45.127Z,14.65
2019-03-15T17:21:14.902Z,21.40
2019-03-15T17:23:44.927Z,18.25
2019-03-15T17:26:14.962Z,16.73
2019-03-15T17:28:57.931Z,17.00
2019-03-15T17:31:16.608Z,14.15
2019-03-15T17:33:46.415Z,14.60
2019-03-15T17:36:16.190Z,19.20
2019-03-15T17:38:45.972Z,11.93
2019-03-15T17:41:15.782Z,17.62
2019-03-15T17:43:45.720Z,13.58
2019-03-15T17:46:15.553Z,17.98
2019-03-15T17:48:45.356Z,20.25
2019-03-15T17:51:15.135Z,23.57
2019-03-15T17:53:44.907Z,17.75
2019-03-15T17:56:14.729Z,13.22
2019-03-15T17:58:44.502Z,18.35
2019-03-15T18:01:14.868Z,10.65
2019-03-15T18:03:47.322Z,12.58
2019-03-15T18:06:16.444Z,13.43
2019-03-15T18:08:46.207Z,16.75
2019-03-15T18:11:16.022Z,11.03
2019-03-15T18:13:47.299Z,16.30
2019-03-15T18:16:17.279Z,11.35
2019-03-15T18:18:47.582Z,12.53
2019-03-15T18:21:17.357Z,12.70
2019-03-15T18:23:47.371Z,16.75
2019-03-15T18:26:17.917Z,11.03
2019-03-15T18:28:47.680Z,8.98
2019-03-15T18:31:17.452Z,11.12
2019-03-15T18:33:47.330Z,13.68
2019-03-15T18:36:17.295Z,13.68
2019-03-15T18:38:47.487Z,16.87
2019-03-15T18:41:17.329Z,13.58
2019-03-15T18:43:47.310Z,9.05
2019-03-15T18:46:17.084Z,18.80
2019-03-15T18:48:46.890Z,22.67
2019-03-15T18:51:16.918Z,13.68
2019-03-15T18:53:46.702Z,16.07
2019-03-15T18:56:16.511Z,18.25
2019-03-15T18:58:46.325Z,16.00
2019-03-15T19:01:16.068Z,17.98
2019-03-15T19:03:45.879Z,14.83
2019-03-15T19:06:15.651Z,12.00
2019-03-15T19:08:45.775Z,12.95
2019-03-15T19:11:16.351Z,11.70
2019-03-15T19:13:46.789Z,13.00
2019-03-15T19:16:20.191Z,15.80
2019-03-15T19:18:48.331Z,14.40
2019-03-15T19:21:18.096Z,16.48
2019-03-15T19:23:48.042Z,17.35
2019-03-15T19:26:18.359Z,15.32
2019-03-15T19:28:48.139Z,19.07
2019-03-15T19:31:18.263Z,18.15
2019-03-15T19:33:48.223Z,15.03
2019-03-15T19:36:18.830Z,16.85
2019-03-15T19:38:48.602Z,19.27
2019-03-15T19:41:18.413Z,15.30
2019-03-15T19:43:48.183Z,20.77
2019-03-15T19:46:18.272Z,12.15
2019-03-15T19:48:48.318Z,16.50
2019-03-15T19:51:18.753Z,14.03
2019-03-15T19:53:48.526Z,17.52
2019-03-15T19:56:18.342Z,17.90
2019-03-15T19:58:48.115Z,12.40
2019-03-15T20:01:18.026Z,16.40
2019-03-15T20:03:47.844Z,15.53
2019-03-15T20:06:17.618Z,12.13
2019-03-15T20:08:47.612Z,16.90
2019-03-15T20:11:17.433Z,21.65
2019-03-15T20:13:47.763Z,14.95
2019-03-15T20:16:17.745Z,15.55
2019-03-15T20:18:47.725Z,15.23
2019-03-15T20:21:17.499Z,14.75
2019-03-15T20:23:47.276Z,19.50
2019-03-15T20:26:17.352Z,16.25
2019-03-15T20:28:47.507Z,19.05
2019-03-15T20:31:17.279Z,14.05
2019-03-15T20:33:47.084Z,18.02
2019-03-15T20:36:16.866Z,20.57
2019-03-15T20:38:46.634Z,15.95
2019-03-15T20:41:19.579Z,18.60
2019-03-15T20:43:47.838Z,17.77
2019-03-15T20:46:17.633Z,16.35
2019-03-15T20:48:47.446Z,18.00
2019-03-15T20:51:17.578Z,15.48
2019-03-15T20:53:47.356Z,21.05
2019-03-15T20:56:17.156Z,14.55
2019-03-15T20:58:46.965Z,14.43
2019-03-15T21:01:16.754Z,13.80
2019-03-15T21:03:55.929Z,16.27
2019-03-15T21:06:20.282Z,21.87
2019-03-15T21:08:50.055Z,19.55
2019-03-15T21:11:19.862Z,23.52
2019-03-15T21:13:49.634Z,18.42
2019-03-15T21:16:19.606Z,17.77
2019-03-15T21:18:49.420Z,17.32
2019-03-15T21:21:19.191Z,20.88
2019-03-15T21:23:49.703Z,15.25
2019-03-15T21:26:20.785Z,14.43
2019-03-15T21:28:50.565Z,17.40
2019-03-15T21:31:20.346Z,16.30
2019-03-15T21:33:50.163Z,20.23
2019-03-15T21:36:19.934Z,15.98
2019-03-15T21:38:50.437Z,23.75
2019-03-15T21:41:20.877Z,19.27
2019-03-15T21:43:50.647Z,13.55
2019-03-15T21:46:20.419Z,28.55
2019-03-15T21:48:50.222Z,17.57
2019-03-15T21:51:19.998Z,24.23
2019-03-15T21:53:49.775Z,19.02
2019-03-15T21:56:19.595Z,17.65
2019-03-15T21:58:49.370Z,19.67
2019-03-15T22:01:19.538Z,21.82
2019-03-15T22:03:49.495Z,24.32
2019-03-15T22:06:19.694Z,19.05
2019-03-15T22:08:49.472Z,21.70
2019-03-15T22:11:21.321Z,20.43
2019-03-15T22:13:50.943Z,22.22
2019-03-15T22:16:22.315Z,23.40
2019-03-15T22:18:52.214Z,19.23
2019-03-15T22:21:21.997Z,19.23
2019-03-15T22:23:52.338Z,21.50
2019-03-15T22:26:22.136Z,21.87
2019-03-15T22:28:51.910Z,23.67
2019-03-15T22:31:21.688Z,18.55
2019-03-15T22:33:51.647Z,18.32
2019-03-15T22:36:21.422Z,23.32
2019-03-15T22:38:51.195Z,20.88
2019-03-15T22:41:21.626Z,19.30
2019-03-15T22:43:51.640Z,14.43
2019-03-15T22:46:21.366Z,18.50
2019-03-15T22:48:51.543Z,26.07
2019-03-15T22:51:21.315Z,22.80
2019-03-15T22:53:51.441Z,20.10
2019-03-15T22:56:21.598Z,20.30
2019-03-15T22:58:51.373Z,20.80
2019-03-15T23:01:30.186Z,18.05
2019-03-15T23:03:52.740Z,22.13
2019-03-15T23:06:22.716Z,20.70
2019-03-15T23:08:52.496Z,16.32
2019-03-15T23:11:22.306Z,19.17
2019-03-15T23:13:52.085Z,16.45
2019-03-15T23:16:22.811Z,19.05
2019-03-15T23:18:52.618Z,17.20
2019-03-15T23:21:22.651Z,12.43
2019-03-15T23:23:52.429Z,23.55
2019-03-15T23:26:22.409Z,22.40
2019-03-15T23:28:52.184Z,15.90
2019-03-15T23:31:21.973Z,19.00
2019-03-15T23:33:52.020Z,19.12
2019-03-15T23:36:22.795Z,17.12
2019-03-15T23:38:52.575Z,20.75
2019-03-15T23:41:22.385Z,20.52
2019-03-15T23:43:52.159Z,25.62
2019-03-15T23:46:21.935Z,23.92
2019-03-15T23:48:52.203Z,26.85
2019-03-15T23:51:21.976Z,19.40
2019-03-15T23:53:51.751Z,18.85
2019-03-15T23:56:22.099Z,16.57
2019-03-15T23:58:51.871Z,19.57
